sensor_id;sensor_type;location;lat;lon;timestamp;temperature;humidity
37426;DHT22;23285;50.180;7.036;2022-08-03T00:06:01;22.10;91.00
37426;DHT22;23285;50.180;7.036;2022-08-03T00:08:46;22.10;90.10
37426;DHT22;23285;50.180;7.036;2022-08-03T00:11:32;21.80;90.50
37426;DHT22;23285;50.180;7.036;2022-08-03T00:19:48;21.80;91.30
37426;DHT22;23285;50.180;7.036;2022-08-03T00:22:34;21.70;90.80
37426;DHT22;23285;50.180;7.036;2022-08-03T00:25:19;21.80;90.60
37426;DHT22;23285;50.180;7.036;2022-08-03T00:30:50;21.80;91.60
37426;DHT22;23285;50.180;7.036;2022-08-03T00:33:35;21.60;91.00
37426;DHT22;23285;50.180;7.036;2022-08-03T00:36:20;21.60;90.80
37426;DHT22;23285;50.180;7.036;2022-08-03T00:39:05;21.60;91.10
37426;DHT22;23285;50.180;7.036;2022-08-03T00:41:50;21.50;91.20
37426;DHT22;23285;50.180;7.036;2022-08-03T00:44:39;21.40;91.20
37426;DHT22;23285;50.180;7.036;2022-08-03T00:47:24;21.40;92.00
37426;DHT22;23285;50.180;7.036;2022-08-03T00:50:10;21.50;91.30
37426;DHT22;23285;50.180;7.036;2022-08-03T00:52:57;21.70;91.10
37426;DHT22;23285;50.180;7.036;2022-08-03T00:55:42;21.60;91.90
37426;DHT22;23285;50.180;7.036;2022-08-03T00:58:28;21.30;91.90
37426;DHT22;23285;50.180;7.036;2022-08-03T01:01:14;21.20;91.90
37426;DHT22;23285;50.180;7.036;2022-08-03T01:06:51;21.10;93.10
37426;DHT22;23285;50.180;7.036;2022-08-03T01:15:35;21.40;92.60
37426;DHT22;23285;50.180;7.036;2022-08-03T01:18:35;21.20;92.30
37426;DHT22;23285;50.180;7.036;2022-08-03T01:30:28;20.90;93.60
37426;DHT22;23285;50.180;7.036;2022-08-03T01:36:08;21.00;93.30
37426;DHT22;23285;50.180;7.036;2022-08-03T01:38:59;20.70;93.10
37426;DHT22;23285;50.180;7.036;2022-08-03T01:41:51;20.80;93.00
37426;DHT22;23285;50.180;7.036;2022-08-03T01:44:40;20.70;93.20
37426;DHT22;23285;50.180;7.036;2022-08-03T01:47:27;21.20;92.70
37426;DHT22;23285;50.180;7.036;2022-08-03T01:52:58;21.60;92.60
37426;DHT22;23285;50.180;7.036;2022-08-03T01:55:46;21.20;92.10
37426;DHT22;23285;50.180;7.036;2022-08-03T01:58:34;21.00;93.00
37426;DHT22;23285;50.180;7.036;2022-08-03T02:01:20;21.30;92.60
37426;DHT22;23285;50.180;7.036;2022-08-03T02:04:06;20.90;93.10
37426;DHT22;23285;50.180;7.036;2022-08-03T02:06:53;21.00;93.10
37426;DHT22;23285;50.180;7.036;2022-08-03T02:09:39;20.90;93.30
37426;DHT22;23285;50.180;7.036;2022-08-03T02:15:11;20.50;94.60
37426;DHT22;23285;50.180;7.036;2022-08-03T02:20:46;20.40;94.90
37426;DHT22;23285;50.180;7.036;2022-08-03T02:23:31;20.50;93.80
37426;DHT22;23285;50.180;7.036;2022-08-03T02:29:15;20.80;94.80
37426;DHT22;23285;50.180;7.036;2022-08-03T02:32:03;20.80;94.40
37426;DHT22;23285;50.180;7.036;2022-08-03T02:34:50;20.90;93.40
37426;DHT22;23285;50.180;7.036;2022-08-03T02:37:42;21.00;93.50
37426;DHT22;23285;50.180;7.036;2022-08-03T02:43:18;20.70;94.70
37426;DHT22;23285;50.180;7.036;2022-08-03T02:46:04;20.50;94.10
37426;DHT22;23285;50.180;7.036;2022-08-03T02:48:52;20.40;94.20
37426;DHT22;23285;50.180;7.036;2022-08-03T02:51:39;20.60;93.70
37426;DHT22;23285;50.180;7.036;2022-08-03T02:54:26;20.60;94.40
37426;DHT22;23285;50.180;7.036;2022-08-03T02:57:13;20.50;94.10
37426;DHT22;23285;50.180;7.036;2022-08-03T02:59:59;20.50;94.30
37426;DHT22;23285;50.180;7.036;2022-08-03T03:02:45;20.40;94.40
37426;DHT22;23285;50.180;7.036;2022-08-03T03:05:31;20.40;94.00
37426;DHT22;23285;50.180;7.036;2022-08-03T03:08:18;20.30;93.90
37426;DHT22;23285;50.180;7.036;2022-08-03T03:11:03;20.20;94.60
37426;DHT22;23285;50.180;7.036;2022-08-03T03:16:35;20.40;95.10
37426;DHT22;23285;50.180;7.036;2022-08-03T03:19:21;20.20;94.10
37426;DHT22;23285;50.180;7.036;2022-08-03T03:22:07;20.10;94.50
37426;DHT22;23285;50.180;7.036;2022-08-03T03:24:53;20.10;94.50
37426;DHT22;23285;50.180;7.036;2022-08-03T03:27:39;20.10;94.50
37426;DHT22;23285;50.180;7.036;2022-08-03T03:30:25;20.10;94.20
37426;DHT22;23285;50.180;7.036;2022-08-03T03:35:57;20.20;95.10
37426;DHT22;23285;50.180;7.036;2022-08-03T03:38:42;20.10;94.30
37426;DHT22;23285;50.180;7.036;2022-08-03T03:44:13;20.00;95.30
37426;DHT22;23285;50.180;7.036;2022-08-03T03:46:58;19.90;94.00
37426;DHT22;23285;50.180;7.036;2022-08-03T03:52:30;20.10;95.10
37426;DHT22;23285;50.180;7.036;2022-08-03T03:55:16;20.10;94.40
37426;DHT22;23285;50.180;7.036;2022-08-03T03:58:01;19.90;94.40
37426;DHT22;23285;50.180;7.036;2022-08-03T04:03:34;19.80;95.40
37426;DHT22;23285;50.180;7.036;2022-08-03T04:09:23;19.70;95.60
37426;DHT22;23285;50.180;7.036;2022-08-03T04:12:28;20.30;94.60
37426;DHT22;23285;50.180;7.036;2022-08-03T04:15:14;20.20;94.70
37426;DHT22;23285;50.180;7.036;2022-08-03T04:18:00;19.90;95.20
37426;DHT22;23285;50.180;7.036;2022-08-03T04:23:35;19.70;95.80
37426;DHT22;23285;50.180;7.036;2022-08-03T04:26:23;19.70;95.90
37426;DHT22;23285;50.180;7.036;2022-08-03T04:29:12;19.60;96.10
37426;DHT22;23285;50.180;7.036;2022-08-03T04:37:48;19.60;96.10
37426;DHT22;23285;50.180;7.036;2022-08-03T04:43:24;19.80;96.20
37426;DHT22;23285;50.180;7.036;2022-08-03T04:46:10;19.90;96.40
37426;DHT22;23285;50.180;7.036;2022-08-03T04:48:57;19.90;96.40
37426;DHT22;23285;50.180;7.036;2022-08-03T04:51:42;19.80;96.20
37426;DHT22;23285;50.180;7.036;2022-08-03T04:54:27;19.80;96.40
37426;DHT22;23285;50.180;7.036;2022-08-03T05:02:42;19.90;96.70
37426;DHT22;23285;50.180;7.036;2022-08-03T05:08:13;20.00;97.00
37426;DHT22;23285;50.180;7.036;2022-08-03T05:10:58;20.00;96.80
37426;DHT22;23285;50.180;7.036;2022-08-03T05:13:46;20.10;97.00
37426;DHT22;23285;50.180;7.036;2022-08-03T05:19:17;20.30;97.00
37426;DHT22;23285;50.180;7.036;2022-08-03T05:22:02;20.30;96.90
37426;DHT22;23285;50.180;7.036;2022-08-03T05:24:48;20.30;97.20
37426;DHT22;23285;50.180;7.036;2022-08-03T05:30:19;20.40;97.50
37426;DHT22;23285;50.180;7.036;2022-08-03T05:33:04;20.50;97.40
37426;DHT22;23285;50.180;7.036;2022-08-03T05:35:49;20.80;97.30
37426;DHT22;23285;50.180;7.036;2022-08-03T05:41:20;21.10;97.20
37426;DHT22;23285;50.180;7.036;2022-08-03T05:44:05;21.10;97.00
37426;DHT22;23285;50.180;7.036;2022-08-03T05:49:35;21.40;97.20
37426;DHT22;23285;50.180;7.036;2022-08-03T05:52:20;21.50;96.90
37426;DHT22;23285;50.180;7.036;2022-08-03T05:55:08;21.60;96.90
37426;DHT22;23285;50.180;7.036;2022-08-03T05:57:54;21.70;97.50
37426;DHT22;23285;50.180;7.036;2022-08-03T06:00:39;21.70;96.80
37426;DHT22;23285;50.180;7.036;2022-08-03T06:03:24;21.90;96.90
37426;DHT22;23285;50.180;7.036;2022-08-03T06:06:09;22.10;96.80
37426;DHT22;23285;50.180;7.036;2022-08-03T06:08:54;22.20;97.00
37426;DHT22;23285;50.180;7.036;2022-08-03T06:14:25;22.30;97.30
37426;DHT22;23285;50.180;7.036;2022-08-03T06:17:11;22.50;96.10
37426;DHT22;23285;50.180;7.036;2022-08-03T06:19:56;22.80;96.20
37426;DHT22;23285;50.180;7.036;2022-08-03T06:22:41;23.30;95.50
37426;DHT22;23285;50.180;7.036;2022-08-03T06:25:26;23.20;95.40
37426;DHT22;23285;50.180;7.036;2022-08-03T06:28:11;23.20;95.40
37426;DHT22;23285;50.180;7.036;2022-08-03T06:31:02;23.20;95.90
37426;DHT22;23285;50.180;7.036;2022-08-03T06:33:47;23.20;95.20
37426;DHT22;23285;50.180;7.036;2022-08-03T06:36:33;23.50;94.30
37426;DHT22;23285;50.180;7.036;2022-08-03T06:39:18;23.30;94.80
37426;DHT22;23285;50.180;7.036;2022-08-03T06:47:36;23.80;95.40
37426;DHT22;23285;50.180;7.036;2022-08-03T06:53:07;23.90;94.50
37426;DHT22;23285;50.180;7.036;2022-08-03T06:55:54;23.70;94.10
37426;DHT22;23285;50.180;7.036;2022-08-03T06:58:40;23.80;93.10
37426;DHT22;23285;50.180;7.036;2022-08-03T07:01:25;23.90;92.90
37426;DHT22;23285;50.180;7.036;2022-08-03T07:04:10;24.20;92.60
37426;DHT22;23285;50.180;7.036;2022-08-03T07:09:40;24.20;93.30
37426;DHT22;23285;50.180;7.036;2022-08-03T07:12:27;24.40;92.60
37426;DHT22;23285;50.180;7.036;2022-08-03T07:17:58;24.70;92.80
37426;DHT22;23285;50.180;7.036;2022-08-03T07:20:43;24.90;92.30
37426;DHT22;23285;50.180;7.036;2022-08-03T07:23:28;25.00;91.60
37426;DHT22;23285;50.180;7.036;2022-08-03T07:26:13;25.20;91.30
37426;DHT22;23285;50.180;7.036;2022-08-03T07:28:58;24.90;92.00
37426;DHT22;23285;50.180;7.036;2022-08-03T07:31:45;25.20;92.40
37426;DHT22;23285;50.180;7.036;2022-08-03T07:34:30;25.30;90.60
37426;DHT22;23285;50.180;7.036;2022-08-03T07:37:15;25.20;91.40
37426;DHT22;23285;50.180;7.036;2022-08-03T07:40:02;25.30;91.20
37426;DHT22;23285;50.180;7.036;2022-08-03T07:42:47;25.40;91.40
37426;DHT22;23285;50.180;7.036;2022-08-03T07:48:18;26.00;91.00
37426;DHT22;23285;50.180;7.036;2022-08-03T07:51:03;25.90;90.30
37426;DHT22;23285;50.180;7.036;2022-08-03T07:53:49;26.00;90.50
37426;DHT22;23285;50.180;7.036;2022-08-03T07:56:36;26.00;89.70
37426;DHT22;23285;50.180;7.036;2022-08-03T08:02:06;26.50;90.40
37426;DHT22;23285;50.180;7.036;2022-08-03T08:04:51;26.50;87.80
37426;DHT22;23285;50.180;7.036;2022-08-03T08:13:11;26.60;88.00
37426;DHT22;23285;50.180;7.036;2022-08-03T08:15:58;26.60;87.10
37426;DHT22;23285;50.180;7.036;2022-08-03T08:18:43;26.60;87.20
37426;DHT22;23285;50.180;7.036;2022-08-03T08:21:28;26.60;86.40
37426;DHT22;23285;50.180;7.036;2022-08-03T08:24:13;26.70;87.20
37426;DHT22;23285;50.180;7.036;2022-08-03T08:26:59;26.80;86.80
37426;DHT22;23285;50.180;7.036;2022-08-03T08:29:45;26.80;87.80
37426;DHT22;23285;50.180;7.036;2022-08-03T08:32:30;26.80;85.40
37426;DHT22;23285;50.180;7.036;2022-08-03T08:35:15;27.20;85.30
37426;DHT22;23285;50.180;7.036;2022-08-03T08:38:01;27.30;86.30
37426;DHT22;23285;50.180;7.036;2022-08-03T08:43:32;27.70;84.00
37426;DHT22;23285;50.180;7.036;2022-08-03T08:49:06;27.30;84.70
37426;DHT22;23285;50.180;7.036;2022-08-03T08:51:53;27.60;84.40
37426;DHT22;23285;50.180;7.036;2022-08-03T08:54:41;27.80;84.50
37426;DHT22;23285;50.180;7.036;2022-08-03T08:57:50;28.00;82.70
37426;DHT22;23285;50.180;7.036;2022-08-03T09:06:07;28.70;81.40
37426;DHT22;23285;50.180;7.036;2022-08-03T09:08:52;28.70;79.70
37426;DHT22;23285;50.180;7.036;2022-08-03T09:11:36;28.50;81.50
37426;DHT22;23285;50.180;7.036;2022-08-03T09:14:25;28.70;80.90
37426;DHT22;23285;50.180;7.036;2022-08-03T09:17:11;28.80;79.70
37426;DHT22;23285;50.180;7.036;2022-08-03T09:20:05;28.80;79.00
37426;DHT22;23285;50.180;7.036;2022-08-03T09:23:06;28.70;80.30
37426;DHT22;23285;50.180;7.036;2022-08-03T09:28:42;29.20;80.00
37426;DHT22;23285;50.180;7.036;2022-08-03T09:31:36;29.20;76.90
37426;DHT22;23285;50.180;7.036;2022-08-03T09:34:24;29.40;78.80
37426;DHT22;23285;50.180;7.036;2022-08-03T09:39:59;29.60;76.70
37426;DHT22;23285;50.180;7.036;2022-08-03T09:42:56;30.00;73.90
37426;DHT22;23285;50.180;7.036;2022-08-03T09:45:42;30.10;74.80
37426;DHT22;23285;50.180;7.036;2022-08-03T09:48:31;29.90;74.70
37426;DHT22;23285;50.180;7.036;2022-08-03T09:54:09;30.20;75.20
37426;DHT22;23285;50.180;7.036;2022-08-03T09:56:55;30.30;73.10
37426;DHT22;23285;50.180;7.036;2022-08-03T10:02:26;30.30;75.00
37426;DHT22;23285;50.180;7.036;2022-08-03T10:05:12;30.60;72.70
37426;DHT22;23285;50.180;7.036;2022-08-03T10:07:57;30.40;71.40
37426;DHT22;23285;50.180;7.036;2022-08-03T10:10:44;30.10;70.80
37426;DHT22;23285;50.180;7.036;2022-08-03T10:13:29;30.20;73.10
37426;DHT22;23285;50.180;7.036;2022-08-03T10:16:15;30.30;71.50
37426;DHT22;23285;50.180;7.036;2022-08-03T10:19:01;30.30;72.30
37426;DHT22;23285;50.180;7.036;2022-08-03T10:27:26;30.80;71.80
37426;DHT22;23285;50.180;7.036;2022-08-03T10:30:15;31.10;69.80
37426;DHT22;23285;50.180;7.036;2022-08-03T10:33:04;31.20;71.50
37426;DHT22;23285;50.180;7.036;2022-08-03T10:35:53;31.50;69.90
37426;DHT22;23285;50.180;7.036;2022-08-03T10:38:44;31.90;69.90
37426;DHT22;23285;50.180;7.036;2022-08-03T10:41:33;31.70;67.80
37426;DHT22;23285;50.180;7.036;2022-08-03T10:44:22;31.70;66.50
37426;DHT22;23285;50.180;7.036;2022-08-03T10:47:09;31.60;65.30
37426;DHT22;23285;50.180;7.036;2022-08-03T10:55:45;31.40;65.10
37426;DHT22;23285;50.180;7.036;2022-08-03T11:01:53;32.10;67.30
37426;DHT22;23285;50.180;7.036;2022-08-03T11:04:39;32.00;64.80
37426;DHT22;23285;50.180;7.036;2022-08-03T11:07:24;31.90;64.30
37426;DHT22;23285;50.180;7.036;2022-08-03T11:10:29;32.40;63.00
37426;DHT22;23285;50.180;7.036;2022-08-03T11:13:19;32.60;62.20
37426;DHT22;23285;50.180;7.036;2022-08-03T11:16:19;32.50;63.00
37426;DHT22;23285;50.180;7.036;2022-08-03T11:19:08;32.50;65.00
37426;DHT22;23285;50.180;7.036;2022-08-03T11:21:55;33.00;63.90
37426;DHT22;23285;50.180;7.036;2022-08-03T11:27:34;32.60;63.20
37426;DHT22;23285;50.180;7.036;2022-08-03T11:33:04;32.80;62.70
37426;DHT22;23285;50.180;7.036;2022-08-03T11:36:00;32.70;62.70
37426;DHT22;23285;50.180;7.036;2022-08-03T11:39:14;32.60;63.90
37426;DHT22;23285;50.180;7.036;2022-08-03T11:42:00;33.20;64.30
37426;DHT22;23285;50.180;7.036;2022-08-03T11:45:07;33.40;62.20
37426;DHT22;23285;50.180;7.036;2022-08-03T11:47:54;33.50;62.80
37426;DHT22;23285;50.180;7.036;2022-08-03T11:50:39;33.60;61.50
37426;DHT22;23285;50.180;7.036;2022-08-03T11:53:24;33.60;61.00
37426;DHT22;23285;50.180;7.036;2022-08-03T11:56:09;33.40;59.70
37426;DHT22;23285;50.180;7.036;2022-08-03T12:01:40;33.10;60.70
37426;DHT22;23285;50.180;7.036;2022-08-03T12:04:25;33.10;59.60
37426;DHT22;23285;50.180;7.036;2022-08-03T12:07:10;33.10;60.40
37426;DHT22;23285;50.180;7.036;2022-08-03T12:18:26;34.00;61.00
37426;DHT22;23285;50.180;7.036;2022-08-03T12:21:11;34.40;59.30
37426;DHT22;23285;50.180;7.036;2022-08-03T12:23:58;34.30;58.20
37426;DHT22;23285;50.180;7.036;2022-08-03T12:26:49;34.20;60.50
37426;DHT22;23285;50.180;7.036;2022-08-03T12:29:35;34.30;59.10
37426;DHT22;23285;50.180;7.036;2022-08-03T12:35:05;34.20;58.30
37426;DHT22;23285;50.180;7.036;2022-08-03T12:37:51;34.40;58.90
37426;DHT22;23285;50.180;7.036;2022-08-03T12:40:36;34.20;57.60
37426;DHT22;23285;50.180;7.036;2022-08-03T12:43:21;34.20;57.60
37426;DHT22;23285;50.180;7.036;2022-08-03T12:46:12;34.20;56.70
37426;DHT22;23285;50.180;7.036;2022-08-03T12:49:04;34.50;59.40
37426;DHT22;23285;50.180;7.036;2022-08-03T12:54:35;35.00;57.60
37426;DHT22;23285;50.180;7.036;2022-08-03T12:57:20;34.90;56.80
37426;DHT22;23285;50.180;7.036;2022-08-03T13:00:13;35.10;55.90
37426;DHT22;23285;50.180;7.036;2022-08-03T13:03:07;35.10;57.50
37426;DHT22;23285;50.180;7.036;2022-08-03T13:05:52;35.30;55.40
37426;DHT22;23285;50.180;7.036;2022-08-03T13:08:37;34.90;57.20
37426;DHT22;23285;50.180;7.036;2022-08-03T13:11:24;34.90;58.20
37426;DHT22;23285;50.180;7.036;2022-08-03T13:14:09;35.10;56.70
37426;DHT22;23285;50.180;7.036;2022-08-03T13:16:54;35.50;54.50
37426;DHT22;23285;50.180;7.036;2022-08-03T13:19:39;34.90;53.90
37426;DHT22;23285;50.180;7.036;2022-08-03T13:22:26;34.60;55.20
37426;DHT22;23285;50.180;7.036;2022-08-03T13:25:13;34.60;55.60
37426;DHT22;23285;50.180;7.036;2022-08-03T13:27:58;34.30;55.60
37426;DHT22;23285;50.180;7.036;2022-08-03T13:30:43;34.40;55.20
37426;DHT22;23285;50.180;7.036;2022-08-03T13:33:28;34.80;55.10
37426;DHT22;23285;50.180;7.036;2022-08-03T13:36:13;35.00;54.70
37426;DHT22;23285;50.180;7.036;2022-08-03T13:38:58;35.20;54.10
37426;DHT22;23285;50.180;7.036;2022-08-03T13:47:14;35.70;57.00
37426;DHT22;23285;50.180;7.036;2022-08-03T13:49:59;35.90;54.60
37426;DHT22;23285;50.180;7.036;2022-08-03T13:52:44;35.90;54.70
37426;DHT22;23285;50.180;7.036;2022-08-03T13:58:17;36.10;55.20
37426;DHT22;23285;50.180;7.036;2022-08-03T14:01:02;36.20;53.80
37426;DHT22;23285;50.180;7.036;2022-08-03T14:03:47;36.20;55.00
37426;DHT22;23285;50.180;7.036;2022-08-03T14:06:36;36.30;54.90
37426;DHT22;23285;50.180;7.036;2022-08-03T14:09:21;36.20;54.20
37426;DHT22;23285;50.180;7.036;2022-08-03T14:12:06;36.00;54.20
37426;DHT22;23285;50.180;7.036;2022-08-03T14:14:51;35.80;54.10
37426;DHT22;23285;50.180;7.036;2022-08-03T14:17:36;35.80;54.60
37426;DHT22;23285;50.180;7.036;2022-08-03T14:20:21;36.10;54.80
37426;DHT22;23285;50.180;7.036;2022-08-03T14:23:07;36.40;54.50
37426;DHT22;23285;50.180;7.036;2022-08-03T14:25:52;36.60;53.20
37426;DHT22;23285;50.180;7.036;2022-08-03T14:28:37;36.60;54.60
37426;DHT22;23285;50.180;7.036;2022-08-03T14:31:22;36.70;53.30
37426;DHT22;23285;50.180;7.036;2022-08-03T14:34:07;37.00;53.80
37426;DHT22;23285;50.180;7.036;2022-08-03T14:36:53;37.20;52.80
37426;DHT22;23285;50.180;7.036;2022-08-03T14:39:38;37.00;51.80
37426;DHT22;23285;50.180;7.036;2022-08-03T14:42:23;36.70;51.80
37426;DHT22;23285;50.180;7.036;2022-08-03T14:45:08;36.70;52.00
37426;DHT22;23285;50.180;7.036;2022-08-03T14:47:53;36.80;52.60
37426;DHT22;23285;50.180;7.036;2022-08-03T14:53:24;36.90;52.20
37426;DHT22;23285;50.180;7.036;2022-08-03T14:56:09;36.50;50.90
37426;DHT22;23285;50.180;7.036;2022-08-03T15:01:39;36.00;53.40
37426;DHT22;23285;50.180;7.036;2022-08-03T15:04:24;36.00;52.30
37426;DHT22;23285;50.180;7.036;2022-08-03T15:20:56;36.30;51.90
37426;DHT22;23285;50.180;7.036;2022-08-03T15:26:26;36.30;51.30
37426;DHT22;23285;50.180;7.036;2022-08-03T15:31:57;37.10;51.00
37426;DHT22;23285;50.180;7.036;2022-08-03T15:34:42;37.00;48.60
37426;DHT22;23285;50.180;7.036;2022-08-03T15:37:27;37.10;48.40
37426;DHT22;23285;50.180;7.036;2022-08-03T15:42:59;36.60;50.80
37426;DHT22;23285;50.180;7.036;2022-08-03T15:45:45;37.00;49.80
37426;DHT22;23285;50.180;7.036;2022-08-03T15:48:30;37.40;49.50
37426;DHT22;23285;50.180;7.036;2022-08-03T15:51:15;37.90;48.70
37426;DHT22;23285;50.180;7.036;2022-08-03T15:54:00;37.50;49.30
37426;DHT22;23285;50.180;7.036;2022-08-03T15:59:31;37.60;50.30
37426;DHT22;23285;50.180;7.036;2022-08-03T16:02:16;37.30;50.20
37426;DHT22;23285;50.180;7.036;2022-08-03T16:05:01;36.90;49.70
37426;DHT22;23285;50.180;7.036;2022-08-03T16:10:37;37.50;49.80
37426;DHT22;23285;50.180;7.036;2022-08-03T16:13:22;37.30;49.20
37426;DHT22;23285;50.180;7.036;2022-08-03T16:21:38;37.20;51.80
37426;DHT22;23285;50.180;7.036;2022-08-03T16:24:23;37.40;50.70
37426;DHT22;23285;50.180;7.036;2022-08-03T16:27:08;37.40;50.40
37426;DHT22;23285;50.180;7.036;2022-08-03T16:29:53;37.20;49.50
37426;DHT22;23285;50.180;7.036;2022-08-03T16:32:39;37.20;50.60
37426;DHT22;23285;50.180;7.036;2022-08-03T16:35:24;37.40;50.30
37426;DHT22;23285;50.180;7.036;2022-08-03T16:38:09;37.70;49.60
37426;DHT22;23285;50.180;7.036;2022-08-03T16:40:54;38.00;48.60
37426;DHT22;23285;50.180;7.036;2022-08-03T16:43:39;38.20;48.10
37426;DHT22;23285;50.180;7.036;2022-08-03T16:46:24;37.90;48.40
37426;DHT22;23285;50.180;7.036;2022-08-03T16:57:26;37.90;49.00
37426;DHT22;23285;50.180;7.036;2022-08-03T17:00:11;37.50;48.20
37426;DHT22;23285;50.180;7.036;2022-08-03T17:02:58;37.20;48.70
37426;DHT22;23285;50.180;7.036;2022-08-03T17:05:44;36.90;49.50
37426;DHT22;23285;50.180;7.036;2022-08-03T17:11:16;36.60;50.20
37426;DHT22;23285;50.180;7.036;2022-08-03T17:14:00;36.60;49.70
37426;DHT22;23285;50.180;7.036;2022-08-03T17:16:46;36.70;49.20
37426;DHT22;23285;50.180;7.036;2022-08-03T17:19:31;37.10;49.40
37426;DHT22;23285;50.180;7.036;2022-08-03T17:22:20;37.00;49.60
37426;DHT22;23285;50.180;7.036;2022-08-03T17:25:08;36.90;50.10
37426;DHT22;23285;50.180;7.036;2022-08-03T17:30:41;36.70;50.60
37426;DHT22;23285;50.180;7.036;2022-08-03T17:33:46;36.90;49.80
37426;DHT22;23285;50.180;7.036;2022-08-03T17:36:31;36.90;49.60
37426;DHT22;23285;50.180;7.036;2022-08-03T17:39:18;37.00;50.20
37426;DHT22;23285;50.180;7.036;2022-08-03T17:42:07;36.90;49.80
37426;DHT22;23285;50.180;7.036;2022-08-03T17:44:54;37.20;50.30
37426;DHT22;23285;50.180;7.036;2022-08-03T17:47:39;37.20;49.60
37426;DHT22;23285;50.180;7.036;2022-08-03T17:50:45;37.30;48.30
37426;DHT22;23285;50.180;7.036;2022-08-03T17:53:37;37.10;49.30
37426;DHT22;23285;50.180;7.036;2022-08-03T17:59:47;36.90;50.20
37426;DHT22;23285;50.180;7.036;2022-08-03T18:11:31;36.20;50.70
37426;DHT22;23285;50.180;7.036;2022-08-03T18:14:42;36.20;49.80
37426;DHT22;23285;50.180;7.036;2022-08-03T18:17:32;35.90;50.10
37426;DHT22;23285;50.180;7.036;2022-08-03T18:20:19;35.80;50.60
37426;DHT22;23285;50.180;7.036;2022-08-03T18:23:05;35.80;51.40
37426;DHT22;23285;50.180;7.036;2022-08-03T18:25:53;35.30;51.70
37426;DHT22;23285;50.180;7.036;2022-08-03T18:28:39;35.30;51.50
37426;DHT22;23285;50.180;7.036;2022-08-03T18:31:25;35.00;52.10
37426;DHT22;23285;50.180;7.036;2022-08-03T18:34:13;35.20;51.80
37426;DHT22;23285;50.180;7.036;2022-08-03T18:36:59;35.20;52.10
37426;DHT22;23285;50.180;7.036;2022-08-03T18:39:45;34.90;52.00
37426;DHT22;23285;50.180;7.036;2022-08-03T18:51:08;33.40;57.00
37426;DHT22;23285;50.180;7.036;2022-08-03T19:05:29;33.00;56.20
37426;DHT22;23285;50.180;7.036;2022-08-03T19:08:20;32.70;58.10
37426;DHT22;23285;50.180;7.036;2022-08-03T19:11:07;33.00;58.90
37426;DHT22;23285;50.180;7.036;2022-08-03T19:16:43;33.00;57.70
37426;DHT22;23285;50.180;7.036;2022-08-03T19:19:32;32.90;58.60
37426;DHT22;23285;50.180;7.036;2022-08-03T19:22:17;32.70;58.70
37426;DHT22;23285;50.180;7.036;2022-08-03T19:25:06;32.50;59.60
37426;DHT22;23285;50.180;7.036;2022-08-03T19:27:52;32.00;60.30
37426;DHT22;23285;50.180;7.036;2022-08-03T19:33:25;31.60;62.00
37426;DHT22;23285;50.180;7.036;2022-08-03T19:38:59;31.30;62.40
37426;DHT22;23285;50.180;7.036;2022-08-03T19:41:47;31.30;61.50
37426;DHT22;23285;50.180;7.036;2022-08-03T19:44:38;31.30;61.90
37426;DHT22;23285;50.180;7.036;2022-08-03T19:53:03;30.50;64.70
37426;DHT22;23285;50.180;7.036;2022-08-03T19:55:51;30.30;64.30
37426;DHT22;23285;50.180;7.036;2022-08-03T19:58:38;30.50;61.70
37426;DHT22;23285;50.180;7.036;2022-08-03T20:01:25;30.40;61.60
37426;DHT22;23285;50.180;7.036;2022-08-03T20:04:12;30.40;60.80
37426;DHT22;23285;50.180;7.036;2022-08-03T20:06:58;30.60;61.00
37426;DHT22;23285;50.180;7.036;2022-08-03T20:12:32;30.30;63.70
37426;DHT22;23285;50.180;7.036;2022-08-03T20:18:02;30.10;64.50
37426;DHT22;23285;50.180;7.036;2022-08-03T20:20:49;30.20;63.40
37426;DHT22;23285;50.180;7.036;2022-08-03T20:26:23;30.00;65.90
37426;DHT22;23285;50.180;7.036;2022-08-03T20:29:12;29.80;66.10
37426;DHT22;23285;50.180;7.036;2022-08-03T20:32:00;29.60;66.90
37426;DHT22;23285;50.180;7.036;2022-08-03T20:34:45;29.40;65.90
37426;DHT22;23285;50.180;7.036;2022-08-03T20:40:15;29.10;68.30
37426;DHT22;23285;50.180;7.036;2022-08-03T20:48:34;29.10;68.00
37426;DHT22;23285;50.180;7.036;2022-08-03T20:51:19;29.10;68.50
37426;DHT22;23285;50.180;7.036;2022-08-03T20:54:05;29.20;67.30
37426;DHT22;23285;50.180;7.036;2022-08-03T20:56:51;29.10;67.50
37426;DHT22;23285;50.180;7.036;2022-08-03T20:59:36;28.90;68.50
37426;DHT22;23285;50.180;7.036;2022-08-03T21:02:22;28.60;68.20
37426;DHT22;23285;50.180;7.036;2022-08-03T21:05:07;28.30;69.10
37426;DHT22;23285;50.180;7.036;2022-08-03T21:10:41;28.30;71.10
37426;DHT22;23285;50.180;7.036;2022-08-03T21:14:00;28.30;71.10
37426;DHT22;23285;50.180;7.036;2022-08-03T21:16:47;28.50;70.70
37426;DHT22;23285;50.180;7.036;2022-08-03T21:25:09;28.30;71.20
37426;DHT22;23285;50.180;7.036;2022-08-03T21:27:58;28.10;71.40
37426;DHT22;23285;50.180;7.036;2022-08-03T21:30:44;28.00;72.10
37426;DHT22;23285;50.180;7.036;2022-08-03T21:33:30;28.20;71.60
37426;DHT22;23285;50.180;7.036;2022-08-03T21:36:15;28.40;71.00
37426;DHT22;23285;50.180;7.036;2022-08-03T21:39:02;28.30;69.80
37426;DHT22;23285;50.180;7.036;2022-08-03T21:50:08;27.60;74.40
37426;DHT22;23285;50.180;7.036;2022-08-03T21:52:54;27.50;73.70
37426;DHT22;23285;50.180;7.036;2022-08-03T21:55:58;27.60;74.00
37426;DHT22;23285;50.180;7.036;2022-08-03T21:58:52;27.50;74.00
37426;DHT22;23285;50.180;7.036;2022-08-03T22:01:40;27.30;74.40
37426;DHT22;23285;50.180;7.036;2022-08-03T22:04:26;27.00;75.10
37426;DHT22;23285;50.180;7.036;2022-08-03T22:07:12;27.00;75.90
37426;DHT22;23285;50.180;7.036;2022-08-03T22:09:59;26.90;76.10
37426;DHT22;23285;50.180;7.036;2022-08-03T22:12:44;26.90;75.40
37426;DHT22;23285;50.180;7.036;2022-08-03T22:21:00;26.50;78.00
37426;DHT22;23285;50.180;7.036;2022-08-03T22:23:49;26.60;77.00
37426;DHT22;23285;50.180;7.036;2022-08-03T22:26:38;26.50;77.40
37426;DHT22;23285;50.180;7.036;2022-08-03T22:29:24;26.60;77.20
37426;DHT22;23285;50.180;7.036;2022-08-03T22:43:12;26.30;79.00
37426;DHT22;23285;50.180;7.036;2022-08-03T22:45:58;26.10;78.60
37426;DHT22;23285;50.180;7.036;2022-08-03T22:48:43;26.00;78.70
37426;DHT22;23285;50.180;7.036;2022-08-03T22:54:16;25.80;79.90
37426;DHT22;23285;50.180;7.036;2022-08-03T22:57:03;25.80;78.50
37426;DHT22;23285;50.180;7.036;2022-08-03T22:59:48;25.80;79.80
37426;DHT22;23285;50.180;7.036;2022-08-03T23:02:35;25.80;78.10
37426;DHT22;23285;50.180;7.036;2022-08-03T23:05:25;25.90;79.50
37426;DHT22;23285;50.180;7.036;2022-08-03T23:08:13;25.70;80.00
37426;DHT22;23285;50.180;7.036;2022-08-03T23:13:55;25.50;80.40
37426;DHT22;23285;50.180;7.036;2022-08-03T23:16:42;25.30;81.60
37426;DHT22;23285;50.180;7.036;2022-08-03T23:19:28;25.30;81.80